Anchorville, Michigan
Current Conditions -  °F | °C
As of 8:58 PM on Friday 31 Oct 2014 (Local Time) from KMTC Reporting Station
Light Rain Light Rain  
Wind Chill: 24°   Ceiling: 1100
Heat Index: 36°   Visibility: 10mi
Dew Point: 36°   Wind: 23mph
Humidity: 100%   Direction: 350°N
Pressure: 30.01"   Gusts: 33mph
Location:  42.69°N, 82.7°W
Report Text: KMTC 010058Z AUTO 35020G29KT 10SM -RA OVC011 02/02 A3001 RMK AO2 PK WND 35032/18 SLP170 P0000 T00210021
Loading
Personal Weather Stations






























Interactive Weather Map
Tropical Storm Tracking
New forecast layout! Learn more

10-Day Weather Forecast

Advertisements
Track Severe Weather on mobile